sensor_id;sensor_type;location;lat;lon;timestamp;temperature;humidity
18191;DHT22;47004;51.366;12.348;2022-10-16T00:01:04;15.40;99.90
18191;DHT22;47004;51.366;12.348;2022-10-16T00:03:08;15.40;99.90
18191;DHT22;47004;51.366;12.348;2022-10-16T00:05:10;15.40;99.90
18191;DHT22;47004;51.366;12.348;2022-10-16T00:07:12;15.40;99.90
18191;DHT22;47004;51.366;12.348;2022-10-16T00:09:16;15.40;99.90
18191;DHT22;47004;51.366;12.348;2022-10-16T00:11:20;15.40;99.90
18191;DHT22;47004;51.366;12.348;2022-10-16T00:13:22;15.40;99.90
18191;DHT22;47004;51.366;12.348;2022-10-16T00:15:24;15.40;99.90
18191;DHT22;47004;51.366;12.348;2022-10-16T00:17:29;15.40;99.90
18191;DHT22;47004;51.366;12.348;2022-10-16T00:19:31;15.30;99.90
18191;DHT22;47004;51.366;12.348;2022-10-16T00:21:33;15.30;99.90
18191;DHT22;47004;51.366;12.348;2022-10-16T00:23:36;15.30;99.90
18191;DHT22;47004;51.366;12.348;2022-10-16T00:25:38;15.30;99.90
18191;DHT22;47004;51.366;12.348;2022-10-16T00:27:40;15.50;99.90
18191;DHT22;47004;51.366;12.348;2022-10-16T00:29:42;15.40;99.90
18191;DHT22;47004;51.366;12.348;2022-10-16T00:31:44;15.40;99.90
18191;DHT22;47004;51.366;12.348;2022-10-16T00:33:47;15.30;99.90
18191;DHT22;47004;51.366;12.348;2022-10-16T00:35:49;15.40;99.90
18191;DHT22;47004;51.366;12.348;2022-10-16T00:37:51;15.20;99.90
18191;DHT22;47004;51.366;12.348;2022-10-16T00:39:53;15.40;99.90
18191;DHT22;47004;51.366;12.348;2022-10-16T00:41:56;15.40;99.90
18191;DHT22;47004;51.366;12.348;2022-10-16T00:43:59;15.40;99.90
18191;DHT22;47004;51.366;12.348;2022-10-16T00:46:03;15.40;99.90
18191;DHT22;47004;51.366;12.348;2022-10-16T00:48:11;15.40;99.90
18191;DHT22;47004;51.366;12.348;2022-10-16T00:50:22;15.40;99.90
18191;DHT22;47004;51.366;12.348;2022-10-16T00:52:25;15.40;99.90
18191;DHT22;47004;51.366;12.348;2022-10-16T00:54:29;15.40;99.90
18191;DHT22;47004;51.366;12.348;2022-10-16T00:56:32;15.40;99.90
18191;DHT22;47004;51.366;12.348;2022-10-16T00:58:35;15.40;99.90
18191;DHT22;47004;51.366;12.348;2022-10-16T01:00:37;15.40;99.90
18191;DHT22;47004;51.366;12.348;2022-10-16T01:02:39;15.40;99.90
18191;DHT22;47004;51.366;12.348;2022-10-16T01:04:43;15.40;99.90
18191;DHT22;47004;51.366;12.348;2022-10-16T01:06:54;15.40;99.90
18191;DHT22;47004;51.366;12.348;2022-10-16T01:09:06;15.40;99.90
18191;DHT22;47004;51.366;12.348;2022-10-16T01:11:17;15.40;99.90
18191;DHT22;47004;51.366;12.348;2022-10-16T01:13:25;15.40;99.90
18191;DHT22;47004;51.366;12.348;2022-10-16T01:15:32;15.40;99.90
18191;DHT22;47004;51.366;12.348;2022-10-16T01:17:41;15.40;99.90
18191;DHT22;47004;51.366;12.348;2022-10-16T01:20:02;15.40;99.90
18191;DHT22;47004;51.366;12.348;2022-10-16T01:22:07;15.40;99.90
18191;DHT22;47004;51.366;12.348;2022-10-16T01:24:17;15.40;99.90
18191;DHT22;47004;51.366;12.348;2022-10-16T01:26:35;15.40;99.90
18191;DHT22;47004;51.366;12.348;2022-10-16T01:28:42;15.40;99.90
18191;DHT22;47004;51.366;12.348;2022-10-16T01:30:48;15.40;99.90
18191;DHT22;47004;51.366;12.348;2022-10-16T01:32:57;15.40;99.90
18191;DHT22;47004;51.366;12.348;2022-10-16T01:35:04;15.30;99.90
18191;DHT22;47004;51.366;12.348;2022-10-16T01:37:14;15.30;99.90
18191;DHT22;47004;51.366;12.348;2022-10-16T01:39:20;15.50;99.90
18191;DHT22;47004;51.366;12.348;2022-10-16T01:41:26;15.30;99.90
18191;DHT22;47004;51.366;12.348;2022-10-16T01:43:34;15.30;99.90
18191;DHT22;47004;51.366;12.348;2022-10-16T01:45:40;15.30;99.90
18191;DHT22;47004;51.366;12.348;2022-10-16T01:47:43;15.30;99.90
18191;DHT22;47004;51.366;12.348;2022-10-16T01:49:46;15.30;99.90
18191;DHT22;47004;51.366;12.348;2022-10-16T01:51:51;15.20;99.90
18191;DHT22;47004;51.366;12.348;2022-10-16T01:53:57;15.30;99.90
18191;DHT22;47004;51.366;12.348;2022-10-16T01:56:00;15.20;99.90
18191;DHT22;47004;51.366;12.348;2022-10-16T01:58:05;15.20;99.90
18191;DHT22;47004;51.366;12.348;2022-10-16T02:00:11;15.20;99.90
18191;DHT22;47004;51.366;12.348;2022-10-16T02:02:17;15.20;99.90
18191;DHT22;47004;51.366;12.348;2022-10-16T02:04:23;15.20;99.90
18191;DHT22;47004;51.366;12.348;2022-10-16T02:06:28;15.20;99.90
18191;DHT22;47004;51.366;12.348;2022-10-16T02:08:30;15.20;99.90
18191;DHT22;47004;51.366;12.348;2022-10-16T02:10:34;15.20;99.90
18191;DHT22;47004;51.366;12.348;2022-10-16T02:12:40;15.40;99.90
18191;DHT22;47004;51.366;12.348;2022-10-16T02:14:43;15.20;99.90
18191;DHT22;47004;51.366;12.348;2022-10-16T02:16:46;15.10;99.90
18191;DHT22;47004;51.366;12.348;2022-10-16T02:18:49;15.20;99.90
18191;DHT22;47004;51.366;12.348;2022-10-16T02:20:56;15.10;99.90
18191;DHT22;47004;51.366;12.348;2022-10-16T02:23:01;15.20;99.90
18191;DHT22;47004;51.366;12.348;2022-10-16T02:25:08;15.10;99.90
18191;DHT22;47004;51.366;12.348;2022-10-16T02:27:14;15.10;99.90
18191;DHT22;47004;51.366;12.348;2022-10-16T02:29:20;15.10;99.90
18191;DHT22;47004;51.366;12.348;2022-10-16T02:31:26;15.10;99.90
18191;DHT22;47004;51.366;12.348;2022-10-16T02:33:30;15.10;99.90
18191;DHT22;47004;51.366;12.348;2022-10-16T02:35:34;15.10;99.90
18191;DHT22;47004;51.366;12.348;2022-10-16T02:37:38;15.10;99.90
18191;DHT22;47004;51.366;12.348;2022-10-16T02:39:41;15.10;99.90
18191;DHT22;47004;51.366;12.348;2022-10-16T02:41:43;15.10;99.90
18191;DHT22;47004;51.366;12.348;2022-10-16T02:43:45;15.10;99.90
18191;DHT22;47004;51.366;12.348;2022-10-16T02:45:47;15.10;99.90
18191;DHT22;47004;51.366;12.348;2022-10-16T02:47:49;15.00;99.90
18191;DHT22;47004;51.366;12.348;2022-10-16T02:49:51;15.00;99.90
18191;DHT22;47004;51.366;12.348;2022-10-16T02:51:54;15.00;99.90
18191;DHT22;47004;51.366;12.348;2022-10-16T02:53:56;15.00;99.90
18191;DHT22;47004;51.366;12.348;2022-10-16T02:55:58;15.00;99.90
18191;DHT22;47004;51.366;12.348;2022-10-16T02:58:00;15.00;99.90
18191;DHT22;47004;51.366;12.348;2022-10-16T03:00:03;15.00;99.90
18191;DHT22;47004;51.366;12.348;2022-10-16T03:02:05;15.00;99.90
18191;DHT22;47004;51.366;12.348;2022-10-16T03:04:07;15.00;99.90
18191;DHT22;47004;51.366;12.348;2022-10-16T03:06:08;15.00;99.90
18191;DHT22;47004;51.366;12.348;2022-10-16T03:08:12;15.00;99.90
18191;DHT22;47004;51.366;12.348;2022-10-16T03:10:14;15.00;99.90
18191;DHT22;47004;51.366;12.348;2022-10-16T03:12:16;15.00;99.90
18191;DHT22;47004;51.366;12.348;2022-10-16T03:14:18;15.10;99.90
18191;DHT22;47004;51.366;12.348;2022-10-16T03:16:20;14.90;99.90
18191;DHT22;47004;51.366;12.348;2022-10-16T03:18:22;15.00;99.90
18191;DHT22;47004;51.366;12.348;2022-10-16T03:20:24;14.90;99.90
18191;DHT22;47004;51.366;12.348;2022-10-16T03:22:26;14.90;99.90
18191;DHT22;47004;51.366;12.348;2022-10-16T03:24:29;14.90;99.90
18191;DHT22;47004;51.366;12.348;2022-10-16T03:26:31;14.90;99.90
18191;DHT22;47004;51.366;12.348;2022-10-16T03:28:33;14.90;99.90
18191;DHT22;47004;51.366;12.348;2022-10-16T03:30:35;14.90;99.90
18191;DHT22;47004;51.366;12.348;2022-10-16T03:32:37;14.90;99.90
18191;DHT22;47004;51.366;12.348;2022-10-16T03:34:39;14.90;99.90
18191;DHT22;47004;51.366;12.348;2022-10-16T03:36:41;14.90;99.90
18191;DHT22;47004;51.366;12.348;2022-10-16T03:38:43;14.90;99.90
18191;DHT22;47004;51.366;12.348;2022-10-16T03:40:46;14.90;99.90
18191;DHT22;47004;51.366;12.348;2022-10-16T03:42:48;14.90;99.90
18191;DHT22;47004;51.366;12.348;2022-10-16T03:44:50;14.90;99.90
18191;DHT22;47004;51.366;12.348;2022-10-16T03:46:51;14.90;99.90
18191;DHT22;47004;51.366;12.348;2022-10-16T03:48:53;14.90;99.90
18191;DHT22;47004;51.366;12.348;2022-10-16T03:50:55;14.90;99.90
18191;DHT22;47004;51.366;12.348;2022-10-16T03:52:57;14.90;99.90
18191;DHT22;47004;51.366;12.348;2022-10-16T03:54:59;14.90;99.90
18191;DHT22;47004;51.366;12.348;2022-10-16T03:57:03;14.90;99.90
18191;DHT22;47004;51.366;12.348;2022-10-16T03:59:04;14.80;99.90
18191;DHT22;47004;51.366;12.348;2022-10-16T04:01:07;14.90;99.90
18191;DHT22;47004;51.366;12.348;2022-10-16T04:03:09;14.80;99.90
18191;DHT22;47004;51.366;12.348;2022-10-16T04:05:10;14.90;99.90
18191;DHT22;47004;51.366;12.348;2022-10-16T04:07:12;14.80;99.90
18191;DHT22;47004;51.366;12.348;2022-10-16T04:09:14;14.80;99.90
18191;DHT22;47004;51.366;12.348;2022-10-16T04:11:16;14.90;99.90
18191;DHT22;47004;51.366;12.348;2022-10-16T04:13:19;14.80;99.90
18191;DHT22;47004;51.366;12.348;2022-10-16T04:15:21;14.80;99.90
18191;DHT22;47004;51.366;12.348;2022-10-16T04:17:22;14.80;99.90
18191;DHT22;47004;51.366;12.348;2022-10-16T04:19:24;14.80;99.90
18191;DHT22;47004;51.366;12.348;2022-10-16T04:21:26;14.80;99.90
18191;DHT22;47004;51.366;12.348;2022-10-16T04:23:28;14.70;99.90
18191;DHT22;47004;51.366;12.348;2022-10-16T04:25:30;14.80;99.90
18191;DHT22;47004;51.366;12.348;2022-10-16T04:27:32;14.80;99.90
18191;DHT22;47004;51.366;12.348;2022-10-16T04:29:35;14.80;99.90
18191;DHT22;47004;51.366;12.348;2022-10-16T04:31:37;14.80;99.90
18191;DHT22;47004;51.366;12.348;2022-10-16T04:33:39;14.80;99.90
18191;DHT22;47004;51.366;12.348;2022-10-16T04:35:43;14.80;99.90
18191;DHT22;47004;51.366;12.348;2022-10-16T04:37:45;14.80;99.90
18191;DHT22;47004;51.366;12.348;2022-10-16T04:39:47;14.80;99.90
18191;DHT22;47004;51.366;12.348;2022-10-16T04:41:49;14.70;99.90
18191;DHT22;47004;51.366;12.348;2022-10-16T04:43:51;14.70;99.90
18191;DHT22;47004;51.366;12.348;2022-10-16T04:45:54;14.70;99.90
18191;DHT22;47004;51.366;12.348;2022-10-16T04:47:57;14.70;99.90
18191;DHT22;47004;51.366;12.348;2022-10-16T04:49:58;14.70;99.90
18191;DHT22;47004;51.366;12.348;2022-10-16T04:52:03;14.70;99.90
18191;DHT22;47004;51.366;12.348;2022-10-16T04:54:05;14.70;99.90
18191;DHT22;47004;51.366;12.348;2022-10-16T04:56:07;14.70;99.90
18191;DHT22;47004;51.366;12.348;2022-10-16T04:58:09;14.60;99.90
18191;DHT22;47004;51.366;12.348;2022-10-16T05:00:11;14.70;99.90
18191;DHT22;47004;51.366;12.348;2022-10-16T05:02:14;14.70;99.90
18191;DHT22;47004;51.366;12.348;2022-10-16T05:04:16;14.60;99.90
18191;DHT22;47004;51.366;12.348;2022-10-16T05:06:18;14.70;99.90
18191;DHT22;47004;51.366;12.348;2022-10-16T05:08:20;14.60;99.90
18191;DHT22;47004;51.366;12.348;2022-10-16T05:10:21;14.60;99.90
18191;DHT22;47004;51.366;12.348;2022-10-16T05:12:23;14.60;99.90
18191;DHT22;47004;51.366;12.348;2022-10-16T05:14:25;14.60;99.90
18191;DHT22;47004;51.366;12.348;2022-10-16T05:16:27;14.60;99.90
18191;DHT22;47004;51.366;12.348;2022-10-16T05:18:30;14.60;99.90
18191;DHT22;47004;51.366;12.348;2022-10-16T05:20:32;14.60;99.90
18191;DHT22;47004;51.366;12.348;2022-10-16T05:22:34;14.60;99.90
18191;DHT22;47004;51.366;12.348;2022-10-16T05:24:35;14.60;99.90
18191;DHT22;47004;51.366;12.348;2022-10-16T05:26:37;14.60;99.90
18191;DHT22;47004;51.366;12.348;2022-10-16T05:28:39;14.60;99.90
18191;DHT22;47004;51.366;12.348;2022-10-16T05:30:41;14.60;99.90
18191;DHT22;47004;51.366;12.348;2022-10-16T05:32:46;14.60;99.90
18191;DHT22;47004;51.366;12.348;2022-10-16T05:34:50;14.60;99.90
18191;DHT22;47004;51.366;12.348;2022-10-16T05:36:52;14.60;99.90
18191;DHT22;47004;51.366;12.348;2022-10-16T05:38:55;14.60;99.90
18191;DHT22;47004;51.366;12.348;2022-10-16T05:40:57;14.60;99.90
18191;DHT22;47004;51.366;12.348;2022-10-16T05:42:58;14.60;99.90
18191;DHT22;47004;51.366;12.348;2022-10-16T05:45:00;14.60;99.90
18191;DHT22;47004;51.366;12.348;2022-10-16T05:47:02;14.60;99.90
18191;DHT22;47004;51.366;12.348;2022-10-16T05:49:04;14.60;99.90
18191;DHT22;47004;51.366;12.348;2022-10-16T05:51:10;14.60;99.90
18191;DHT22;47004;51.366;12.348;2022-10-16T05:53:12;14.60;99.90
18191;DHT22;47004;51.366;12.348;2022-10-16T05:55:14;14.60;99.90
18191;DHT22;47004;51.366;12.348;2022-10-16T05:57:16;14.60;99.90
18191;DHT22;47004;51.366;12.348;2022-10-16T05:59:18;14.60;99.90
18191;DHT22;47004;51.366;12.348;2022-10-16T06:01:20;14.60;99.90
18191;DHT22;47004;51.366;12.348;2022-10-16T06:03:24;14.60;99.90
18191;DHT22;47004;51.366;12.348;2022-10-16T06:05:26;14.60;99.90
18191;DHT22;47004;51.366;12.348;2022-10-16T06:07:34;14.60;99.90
18191;DHT22;47004;51.366;12.348;2022-10-16T06:09:36;14.70;99.90
18191;DHT22;47004;51.366;12.348;2022-10-16T06:11:38;14.70;99.90
18191;DHT22;47004;51.366;12.348;2022-10-16T06:13:40;14.70;99.90
18191;DHT22;47004;51.366;12.348;2022-10-16T06:15:43;14.70;99.90
18191;DHT22;47004;51.366;12.348;2022-10-16T06:17:47;14.70;99.90
18191;DHT22;47004;51.366;12.348;2022-10-16T06:19:49;14.70;99.90
18191;DHT22;47004;51.366;12.348;2022-10-16T06:21:51;14.70;99.90
18191;DHT22;47004;51.366;12.348;2022-10-16T06:23:55;14.70;99.90
18191;DHT22;47004;51.366;12.348;2022-10-16T06:26:05;14.80;99.90
18191;DHT22;47004;51.366;12.348;2022-10-16T06:28:06;14.80;99.90
18191;DHT22;47004;51.366;12.348;2022-10-16T06:30:09;14.80;99.90
18191;DHT22;47004;51.366;12.348;2022-10-16T06:32:11;14.80;99.90
18191;DHT22;47004;51.366;12.348;2022-10-16T06:34:13;14.80;99.90
18191;DHT22;47004;51.366;12.348;2022-10-16T06:36:16;14.80;99.90
18191;DHT22;47004;51.366;12.348;2022-10-16T06:38:19;14.80;99.90
18191;DHT22;47004;51.366;12.348;2022-10-16T06:40:23;14.90;99.90
18191;DHT22;47004;51.366;12.348;2022-10-16T06:42:25;14.90;99.90
18191;DHT22;47004;51.366;12.348;2022-10-16T06:44:26;14.90;99.90
18191;DHT22;47004;51.366;12.348;2022-10-16T06:46:28;15.00;99.90
18191;DHT22;47004;51.366;12.348;2022-10-16T06:48:33;15.00;99.90
18191;DHT22;47004;51.366;12.348;2022-10-16T06:50:35;15.10;99.90
18191;DHT22;47004;51.366;12.348;2022-10-16T06:52:37;15.00;99.90
18191;DHT22;47004;51.366;12.348;2022-10-16T06:54:39;15.00;99.90
18191;DHT22;47004;51.366;12.348;2022-10-16T06:56:43;15.00;99.90
18191;DHT22;47004;51.366;12.348;2022-10-16T06:58:45;15.10;99.90
18191;DHT22;47004;51.366;12.348;2022-10-16T07:00:47;15.10;99.90
18191;DHT22;47004;51.366;12.348;2022-10-16T07:02:50;15.10;99.90
18191;DHT22;47004;51.366;12.348;2022-10-16T07:04:51;15.10;99.90
18191;DHT22;47004;51.366;12.348;2022-10-16T07:06:53;15.10;99.90
18191;DHT22;47004;51.366;12.348;2022-10-16T07:08:55;15.10;99.90
18191;DHT22;47004;51.366;12.348;2022-10-16T07:11:00;15.20;99.90
18191;DHT22;47004;51.366;12.348;2022-10-16T07:13:04;15.20;99.90
18191;DHT22;47004;51.366;12.348;2022-10-16T07:15:08;15.20;99.90
18191;DHT22;47004;51.366;12.348;2022-10-16T07:17:10;15.30;99.90
18191;DHT22;47004;51.366;12.348;2022-10-16T07:19:12;15.30;99.90
18191;DHT22;47004;51.366;12.348;2022-10-16T07:21:16;15.30;99.90
18191;DHT22;47004;51.366;12.348;2022-10-16T07:23:22;15.40;99.90
18191;DHT22;47004;51.366;12.348;2022-10-16T07:25:26;15.40;99.90
18191;DHT22;47004;51.366;12.348;2022-10-16T07:27:28;15.40;99.90
18191;DHT22;47004;51.366;12.348;2022-10-16T07:29:31;15.40;99.90
18191;DHT22;47004;51.366;12.348;2022-10-16T07:31:33;15.50;99.90
18191;DHT22;47004;51.366;12.348;2022-10-16T07:33:35;15.50;99.90
18191;DHT22;47004;51.366;12.348;2022-10-16T07:35:37;15.60;99.90
18191;DHT22;47004;51.366;12.348;2022-10-16T07:37:39;15.60;99.90
18191;DHT22;47004;51.366;12.348;2022-10-16T07:39:45;15.60;99.90
18191;DHT22;47004;51.366;12.348;2022-10-16T07:41:47;15.60;99.90
18191;DHT22;47004;51.366;12.348;2022-10-16T07:43:50;15.70;99.90
18191;DHT22;47004;51.366;12.348;2022-10-16T07:45:54;15.70;99.90
18191;DHT22;47004;51.366;12.348;2022-10-16T07:47:56;15.70;99.90
18191;DHT22;47004;51.366;12.348;2022-10-16T07:49:58;15.70;99.90
18191;DHT22;47004;51.366;12.348;2022-10-16T07:52:00;15.80;99.90
18191;DHT22;47004;51.366;12.348;2022-10-16T07:54:03;15.80;99.90
18191;DHT22;47004;51.366;12.348;2022-10-16T07:56:08;15.90;99.90
18191;DHT22;47004;51.366;12.348;2022-10-16T07:58:10;16.00;99.90
18191;DHT22;47004;51.366;12.348;2022-10-16T08:00:13;16.00;99.90
18191;DHT22;47004;51.366;12.348;2022-10-16T08:02:16;16.00;99.90
18191;DHT22;47004;51.366;12.348;2022-10-16T08:04:18;16.10;99.90
18191;DHT22;47004;51.366;12.348;2022-10-16T08:06:21;16.10;99.90
18191;DHT22;47004;51.366;12.348;2022-10-16T08:08:23;16.20;99.90
18191;DHT22;47004;51.366;12.348;2022-10-16T08:10:26;16.30;99.90
18191;DHT22;47004;51.366;12.348;2022-10-16T08:12:28;16.30;99.90
18191;DHT22;47004;51.366;12.348;2022-10-16T08:14:30;16.40;99.90
18191;DHT22;47004;51.366;12.348;2022-10-16T08:16:32;16.50;99.90
18191;DHT22;47004;51.366;12.348;2022-10-16T08:18:35;16.60;99.90
18191;DHT22;47004;51.366;12.348;2022-10-16T08:20:37;16.70;99.90
18191;DHT22;47004;51.366;12.348;2022-10-16T08:22:40;16.80;99.90
18191;DHT22;47004;51.366;12.348;2022-10-16T08:24:41;16.90;99.90
18191;DHT22;47004;51.366;12.348;2022-10-16T08:26:43;17.00;99.90
18191;DHT22;47004;51.366;12.348;2022-10-16T08:28:45;17.10;99.90
18191;DHT22;47004;51.366;12.348;2022-10-16T08:30:47;17.20;99.90
18191;DHT22;47004;51.366;12.348;2022-10-16T08:32:49;17.40;99.90
18191;DHT22;47004;51.366;12.348;2022-10-16T08:34:52;17.40;99.90
18191;DHT22;47004;51.366;12.348;2022-10-16T08:36:54;17.40;99.90
18191;DHT22;47004;51.366;12.348;2022-10-16T08:38:56;17.50;99.90
18191;DHT22;47004;51.366;12.348;2022-10-16T08:41:09;17.60;99.90
18191;DHT22;47004;51.366;12.348;2022-10-16T08:43:28;17.60;99.90
18191;DHT22;47004;51.366;12.348;2022-10-16T08:45:38;17.70;99.90
18191;DHT22;47004;51.366;12.348;2022-10-16T08:47:48;17.80;99.90
18191;DHT22;47004;51.366;12.348;2022-10-16T08:49:57;17.90;99.90
18191;DHT22;47004;51.366;12.348;2022-10-16T08:51:59;17.90;99.90
18191;DHT22;47004;51.366;12.348;2022-10-16T08:54:03;18.00;99.90
18191;DHT22;47004;51.366;12.348;2022-10-16T08:56:06;18.00;99.90
18191;DHT22;47004;51.366;12.348;2022-10-16T08:58:12;18.10;99.90
18191;DHT22;47004;51.366;12.348;2022-10-16T09:00:15;18.10;99.90
18191;DHT22;47004;51.366;12.348;2022-10-16T09:02:28;18.20;99.90
18191;DHT22;47004;51.366;12.348;2022-10-16T09:04:50;18.30;99.90
18191;DHT22;47004;51.366;12.348;2022-10-16T09:07:01;18.30;99.90
18191;DHT22;47004;51.366;12.348;2022-10-16T09:09:15;18.40;99.90
18191;DHT22;47004;51.366;12.348;2022-10-16T09:11:30;18.40;99.90
18191;DHT22;47004;51.366;12.348;2022-10-16T09:13:43;18.50;99.90
18191;DHT22;47004;51.366;12.348;2022-10-16T09:15:52;18.50;99.90
18191;DHT22;47004;51.366;12.348;2022-10-16T09:18:00;18.60;99.90
18191;DHT22;47004;51.366;12.348;2022-10-16T09:20:26;18.60;99.90
18191;DHT22;47004;51.366;12.348;2022-10-16T09:22:32;18.60;99.90
18191;DHT22;47004;51.366;12.348;2022-10-16T09:24:34;18.70;99.90
18191;DHT22;47004;51.366;12.348;2022-10-16T09:26:36;18.80;99.90
18191;DHT22;47004;51.366;12.348;2022-10-16T09:28:38;18.80;99.90
18191;DHT22;47004;51.366;12.348;2022-10-16T09:30:40;18.80;99.90
18191;DHT22;47004;51.366;12.348;2022-10-16T09:32:43;18.90;99.90
18191;DHT22;47004;51.366;12.348;2022-10-16T09:34:48;18.90;99.90
18191;DHT22;47004;51.366;12.348;2022-10-16T09:36:51;19.00;99.90
18191;DHT22;47004;51.366;12.348;2022-10-16T09:39:04;19.00;99.90
18191;DHT22;47004;51.366;12.348;2022-10-16T09:41:15;19.00;99.90
18191;DHT22;47004;51.366;12.348;2022-10-16T09:43:22;19.10;99.90
18191;DHT22;47004;51.366;12.348;2022-10-16T09:45:25;19.20;99.90
18191;DHT22;47004;51.366;12.348;2022-10-16T09:47:28;19.20;99.90
18191;DHT22;47004;51.366;12.348;2022-10-16T09:49:31;19.20;99.90
18191;DHT22;47004;51.366;12.348;2022-10-16T09:51:34;19.30;99.90
18191;DHT22;47004;51.366;12.348;2022-10-16T09:53:41;19.40;99.90
18191;DHT22;47004;51.366;12.348;2022-10-16T09:55:51;19.40;99.90
18191;DHT22;47004;51.366;12.348;2022-10-16T09:57:54;19.40;99.90
18191;DHT22;47004;51.366;12.348;2022-10-16T09:59:58;19.50;99.90
18191;DHT22;47004;51.366;12.348;2022-10-16T10:02:03;19.60;99.90
18191;DHT22;47004;51.366;12.348;2022-10-16T10:04:08;19.70;99.90
18191;DHT22;47004;51.366;12.348;2022-10-16T10:06:21;19.70;99.90
18191;DHT22;47004;51.366;12.348;2022-10-16T10:08:24;19.80;99.90
18191;DHT22;47004;51.366;12.348;2022-10-16T10:10:27;19.80;99.90
18191;DHT22;47004;51.366;12.348;2022-10-16T10:12:32;19.80;99.90
18191;DHT22;47004;51.366;12.348;2022-10-16T10:14:38;19.90;99.90
18191;DHT22;47004;51.366;12.348;2022-10-16T10:16:41;19.90;99.90
18191;DHT22;47004;51.366;12.348;2022-10-16T10:18:43;19.90;99.90
18191;DHT22;47004;51.366;12.348;2022-10-16T10:20:44;20.00;99.90
18191;DHT22;47004;51.366;12.348;2022-10-16T10:22:46;20.00;99.90
18191;DHT22;47004;51.366;12.348;2022-10-16T10:25:16;20.00;99.90
18191;DHT22;47004;51.366;12.348;2022-10-16T10:27:28;20.00;99.90
18191;DHT22;47004;51.366;12.348;2022-10-16T10:29:45;20.10;99.90
18191;DHT22;47004;51.366;12.348;2022-10-16T10:31:56;20.10;99.90
18191;DHT22;47004;51.366;12.348;2022-10-16T10:34:07;20.10;99.90
18191;DHT22;47004;51.366;12.348;2022-10-16T10:36:20;20.10;99.90
18191;DHT22;47004;51.366;12.348;2022-10-16T10:38:34;20.10;99.90
18191;DHT22;47004;51.366;12.348;2022-10-16T10:40:47;20.10;99.90
18191;DHT22;47004;51.366;12.348;2022-10-16T10:42:54;20.10;99.90
18191;DHT22;47004;51.366;12.348;2022-10-16T10:45:16;20.00;99.90
18191;DHT22;47004;51.366;12.348;2022-10-16T10:47:24;20.10;99.90
18191;DHT22;47004;51.366;12.348;2022-10-16T10:49:39;20.10;99.90
18191;DHT22;47004;51.366;12.348;2022-10-16T10:51:53;20.20;99.90
18191;DHT22;47004;51.366;12.348;2022-10-16T10:54:10;20.10;99.90
18191;DHT22;47004;51.366;12.348;2022-10-16T10:56:26;20.10;99.90
18191;DHT22;47004;51.366;12.348;2022-10-16T10:58:47;20.10;99.90
18191;DHT22;47004;51.366;12.348;2022-10-16T11:00:59;20.20;99.90
18191;DHT22;47004;51.366;12.348;2022-10-16T11:03:08;20.20;99.90
18191;DHT22;47004;51.366;12.348;2022-10-16T11:05:35;20.20;99.90
18191;DHT22;47004;51.366;12.348;2022-10-16T11:07:40;20.20;99.90
18191;DHT22;47004;51.366;12.348;2022-10-16T11:09:45;20.20;99.90
18191;DHT22;47004;51.366;12.348;2022-10-16T11:11:51;20.20;99.90
18191;DHT22;47004;51.366;12.348;2022-10-16T11:13:58;20.20;99.90
18191;DHT22;47004;51.366;12.348;2022-10-16T11:16:10;20.20;99.90
18191;DHT22;47004;51.366;12.348;2022-10-16T11:18:18;20.20;99.90
18191;DHT22;47004;51.366;12.348;2022-10-16T11:20:24;20.20;99.90
18191;DHT22;47004;51.366;12.348;2022-10-16T11:22:30;20.20;99.90
18191;DHT22;47004;51.366;12.348;2022-10-16T11:24:40;20.30;99.90
18191;DHT22;47004;51.366;12.348;2022-10-16T11:26:46;20.30;99.90
18191;DHT22;47004;51.366;12.348;2022-10-16T11:28:50;20.20;99.90
18191;DHT22;47004;51.366;12.348;2022-10-16T11:30:55;20.30;99.90
18191;DHT22;47004;51.366;12.348;2022-10-16T11:33:21;20.40;99.90
18191;DHT22;47004;51.366;12.348;2022-10-16T11:35:32;20.40;99.90
18191;DHT22;47004;51.366;12.348;2022-10-16T11:37:42;20.50;99.90
18191;DHT22;47004;51.366;12.348;2022-10-16T11:39:45;20.50;99.90
18191;DHT22;47004;51.366;12.348;2022-10-16T11:41:50;20.50;99.90
18191;DHT22;47004;51.366;12.348;2022-10-16T11:44:12;20.50;99.90
18191;DHT22;47004;51.366;12.348;2022-10-16T11:46:19;20.50;99.90
18191;DHT22;47004;51.366;12.348;2022-10-16T11:48:27;20.60;99.90
18191;DHT22;47004;51.366;12.348;2022-10-16T11:50:36;20.60;99.90
18191;DHT22;47004;51.366;12.348;2022-10-16T11:52:46;20.60;99.90
18191;DHT22;47004;51.366;12.348;2022-10-16T11:54:54;20.60;99.90
18191;DHT22;47004;51.366;12.348;2022-10-16T11:57:03;20.60;99.90
18191;DHT22;47004;51.366;12.348;2022-10-16T11:59:18;20.60;99.90
18191;DHT22;47004;51.366;12.348;2022-10-16T12:01:27;20.60;99.90
18191;DHT22;47004;51.366;12.348;2022-10-16T12:03:36;20.60;99.90
18191;DHT22;47004;51.366;12.348;2022-10-16T12:06:00;20.60;99.90
18191;DHT22;47004;51.366;12.348;2022-10-16T12:08:10;20.60;99.90
18191;DHT22;47004;51.366;12.348;2022-10-16T12:10:20;20.60;99.90
18191;DHT22;47004;51.366;12.348;2022-10-16T12:12:25;20.60;99.90
18191;DHT22;47004;51.366;12.348;2022-10-16T12:14:37;20.60;99.90
18191;DHT22;47004;51.366;12.348;2022-10-16T12:16:50;20.60;99.90
18191;DHT22;47004;51.366;12.348;2022-10-16T12:19:13;20.60;99.90
18191;DHT22;47004;51.366;12.348;2022-10-16T12:21:17;20.60;99.90
18191;DHT22;47004;51.366;12.348;2022-10-16T12:23:20;20.60;99.90
18191;DHT22;47004;51.366;12.348;2022-10-16T12:25:26;20.60;99.90
18191;DHT22;47004;51.366;12.348;2022-10-16T12:27:31;20.50;99.90
18191;DHT22;47004;51.366;12.348;2022-10-16T12:29:36;20.50;99.90
18191;DHT22;47004;51.366;12.348;2022-10-16T12:31:44;20.50;99.90
18191;DHT22;47004;51.366;12.348;2022-10-16T12:33:57;20.50;99.90
18191;DHT22;47004;51.366;12.348;2022-10-16T12:36:03;20.50;99.90
18191;DHT22;47004;51.366;12.348;2022-10-16T12:38:11;20.50;99.90
18191;DHT22;47004;51.366;12.348;2022-10-16T12:40:25;20.50;99.90
18191;DHT22;47004;51.366;12.348;2022-10-16T12:42:33;20.50;99.90
18191;DHT22;47004;51.366;12.348;2022-10-16T12:44:35;20.50;99.90
18191;DHT22;47004;51.366;12.348;2022-10-16T12:46:38;20.50;99.90
18191;DHT22;47004;51.366;12.348;2022-10-16T12:48:42;20.60;99.90
18191;DHT22;47004;51.366;12.348;2022-10-16T12:50:46;20.80;99.90
18191;DHT22;47004;51.366;12.348;2022-10-16T12:52:49;20.90;99.90
18191;DHT22;47004;51.366;12.348;2022-10-16T12:54:51;20.90;99.90
18191;DHT22;47004;51.366;12.348;2022-10-16T12:57:10;21.00;99.90